createdAt,value
2022-12-01T00:03:08.396Z,7.40
2022-12-01T00:07:10.379Z,7.40
2022-12-01T00:11:14.645Z,7.20
2022-12-01T00:15:15.963Z,7.20
2022-12-01T00:19:17.280Z,7.20
2022-12-01T00:23:18.560Z,7.50
2022-12-01T00:27:19.628Z,7.50
2022-12-01T00:31:21.184Z,7.80
2022-12-01T00:35:22.475Z,7.40
2022-12-01T00:39:23.687Z,7.40
2022-12-01T00:43:24.961Z,7.20
2022-12-01T00:47:26.204Z,7.50
2022-12-01T00:51:27.161Z,7.10
2022-12-01T00:55:28.286Z,8.50
2022-12-01T00:59:29.459Z,7.60
2022-12-01T01:03:31.902Z,8.50
2022-12-01T01:07:33.082Z,9.00
2022-12-01T01:11:34.343Z,8.90
2022-12-01T01:15:35.814Z,9.90
2022-12-01T01:19:37.305Z,8.10
2022-12-01T01:23:38.441Z,8.70
2022-12-01T01:27:39.691Z,9.10
2022-12-01T01:31:40.853Z,9.10
2022-12-01T01:35:41.911Z,8.50
2022-12-01T01:39:43.091Z,8.60
2022-12-01T01:43:50.206Z,8.50
2022-12-01T01:47:52.978Z,8.40
2022-12-01T01:51:56.179Z,8.20
2022-12-01T01:55:57.942Z,9.50
2022-12-01T02:00:02.957Z,9.60
2022-12-01T02:04:04.484Z,10.00
2022-12-01T02:08:07.829Z,9.60
2022-12-01T02:12:30.711Z,9.20
2022-12-01T02:16:38.733Z,8.90
2022-12-01T02:21:00.558Z,8.60
2022-12-01T02:25:11.441Z,8.80
2022-12-01T02:29:42.581Z,8.70
2022-12-01T02:33:53.061Z,8.90
2022-12-01T02:38:09.968Z,8.60
2022-12-01T02:42:19.810Z,8.40
2022-12-01T02:46:31.001Z,8.40
2022-12-01T02:50:34.651Z,8.40
2022-12-01T02:54:36.926Z,7.90
2022-12-01T02:58:38.201Z,8.50
2022-12-01T03:02:51.086Z,8.90
2022-12-01T03:07:18.686Z,8.60
2022-12-01T03:11:29.483Z,8.50
2022-12-01T03:24:27.110Z,8.20
2022-12-01T03:28:31.998Z,8.30
2022-12-01T03:32:49.022Z,8.20
2022-12-01T03:36:56.089Z,7.90
2022-12-01T03:41:00.979Z,8.10
2022-12-01T03:45:08.876Z,8.30
2022-12-01T03:49:10.387Z,8.40
2022-12-01T03:53:18.753Z,7.20
2022-12-01T03:57:23.643Z,7.40
2022-12-01T04:01:26.147Z,7.50
2022-12-01T04:05:27.336Z,7.80
2022-12-01T04:09:28.612Z,8.60
2022-12-01T04:13:29.628Z,8.70
2022-12-01T04:17:31.649Z,8.70
2022-12-01T04:21:32.853Z,8.70
2022-12-01T04:25:34.005Z,8.40
2022-12-01T04:29:35.127Z,8.90
2022-12-01T04:33:36.106Z,8.80
2022-12-01T04:37:38.013Z,8.70
2022-12-01T04:41:39.213Z,8.70
2022-12-01T04:45:40.535Z,8.40
2022-12-01T04:49:41.577Z,8.60
2022-12-01T04:53:42.733Z,8.70
2022-12-01T04:57:44.047Z,8.90
2022-12-01T05:01:47.162Z,8.20
2022-12-01T05:05:48.613Z,7.70
2022-12-01T05:09:49.996Z,7.60
2022-12-01T05:13:51.782Z,7.10
2022-12-01T05:17:53.198Z,7.50
2022-12-01T05:21:54.424Z,8.40
2022-12-01T05:25:55.991Z,8.10
2022-12-01T05:29:57.205Z,7.30
2022-12-01T05:33:58.499Z,8.20
2022-12-01T05:38:04.551Z,8.90
2022-12-01T05:42:03.069Z,8.60
2022-12-01T05:46:04.910Z,8.30
2022-12-01T05:50:07.351Z,8.30
2022-12-01T05:54:08.679Z,8.90
2022-12-01T05:58:10.489Z,8.90
2022-12-01T06:02:11.537Z,8.30
2022-12-01T06:06:12.690Z,8.70
2022-12-01T06:10:14.066Z,7.70
2022-12-01T06:14:15.433Z,8.10
2022-12-01T06:18:16.470Z,8.70
2022-12-01T06:22:17.650Z,7.50
2022-12-01T06:26:18.900Z,6.80
2022-12-01T06:30:20.123Z,7.10
2022-12-01T06:34:21.163Z,7.30
2022-12-01T06:38:22.386Z,6.30
2022-12-01T06:42:23.692Z,6.10
2022-12-01T06:46:24.816Z,6.00
2022-12-01T06:50:26.157Z,6.80
2022-12-01T06:54:27.315Z,7.40
2022-12-01T06:58:28.504Z,6.60
2022-12-01T07:02:29.776Z,6.50
2022-12-01T07:06:31.876Z,7.20
2022-12-01T07:10:33.096Z,7.20
2022-12-01T07:14:34.185Z,6.80
2022-12-01T07:18:38.300Z,7.40
2022-12-01T07:22:39.660Z,7.40
2022-12-01T07:26:41.375Z,5.70
2022-12-01T07:30:42.569Z,6.70
2022-12-01T07:34:44.095Z,5.20
2022-12-01T07:38:45.250Z,6.50
2022-12-01T07:42:46.479Z,6.80
2022-12-01T07:46:47.775Z,7.00
2022-12-01T07:50:48.920Z,6.30
2022-12-01T07:54:50.094Z,7.60
2022-12-01T07:58:51.342Z,7.50
2022-12-01T08:02:52.501Z,8.10
2022-12-01T08:06:53.869Z,8.40
2022-12-01T08:10:58.861Z,7.80
2022-12-01T08:14:59.931Z,7.30
2022-12-01T08:19:01.189Z,6.50
2022-12-01T08:23:02.950Z,7.10
2022-12-01T08:27:04.256Z,6.20
2022-12-01T08:31:15.241Z,6.70
2022-12-01T08:35:16.396Z,6.90
2022-12-01T08:39:17.524Z,5.90
2022-12-01T08:43:49.680Z,7.10
2022-12-01T08:47:21.565Z,7.80
2022-12-01T08:51:22.958Z,7.90
2022-12-01T08:55:24.310Z,7.70
2022-12-01T08:59:25.752Z,8.30
2022-12-01T09:03:27.099Z,8.20
2022-12-01T09:07:28.253Z,8.20
2022-12-01T09:11:29.554Z,7.60
2022-12-01T09:15:30.928Z,7.60
2022-12-01T09:19:31.958Z,7.30
2022-12-01T09:23:33.110Z,7.20
2022-12-01T09:27:34.400Z,6.80
2022-12-01T09:31:36.756Z,7.50
2022-12-01T09:35:38.418Z,7.10
2022-12-01T09:39:39.415Z,7.30
2022-12-01T09:43:45.426Z,7.20
2022-12-01T09:47:46.751Z,7.50
2022-12-01T09:51:49.414Z,8.70
2022-12-01T09:55:51.615Z,9.00
2022-12-01T09:59:53.942Z,9.00
2022-12-01T10:03:58.857Z,8.20
2022-12-01T10:08:06.775Z,7.80
2022-12-01T10:12:14.556Z,7.60
2022-12-01T10:16:19.629Z,8.00
2022-12-01T10:20:36.793Z,7.60
2022-12-01T10:25:06.393Z,7.10
2022-12-01T10:29:29.328Z,6.80
2022-12-01T10:33:34.273Z,6.20
2022-12-01T10:37:35.738Z,5.50
2022-12-01T10:41:38.831Z,5.90
2022-12-01T10:45:43.377Z,6.20
2022-12-01T10:49:44.774Z,5.30
2022-12-01T10:53:45.820Z,4.50
2022-12-01T10:57:47.286Z,4.90
2022-12-01T11:01:49.270Z,4.30
2022-12-01T11:05:53.625Z,3.90
2022-12-01T11:10:04.512Z,4.40
2022-12-01T11:14:21.683Z,5.00
2022-12-01T11:18:33.186Z,4.90
2022-12-01T11:22:34.435Z,4.20
2022-12-01T11:26:35.704Z,3.70
2022-12-01T11:30:36.976Z,3.70
2022-12-01T11:34:38.398Z,3.90
2022-12-01T11:38:42.641Z,3.80
2022-12-01T11:42:53.127Z,4.30
2022-12-01T11:47:07.838Z,4.30
2022-12-01T11:51:19.299Z,3.60
2022-12-01T11:55:23.722Z,4.30
2022-12-01T11:59:27.811Z,4.20
2022-12-01T12:03:32.710Z,4.20
2022-12-01T12:08:00.069Z,4.00
2022-12-01T12:12:25.022Z,3.50
2022-12-01T12:16:56.253Z,4.20
2022-12-01T12:21:19.395Z,4.10
2022-12-01T12:25:27.181Z,3.90
2022-12-01T12:29:44.397Z,4.10
2022-12-01T12:34:06.457Z,3.70
2022-12-01T12:38:23.158Z,4.60
2022-12-01T12:42:40.658Z,4.40
2022-12-01T12:46:57.505Z,4.40
2022-12-01T12:51:12.753Z,4.10
2022-12-01T12:55:26.683Z,4.30
2022-12-01T12:59:31.659Z,4.10
2022-12-01T13:03:56.110Z,4.80
2022-12-01T13:08:01.184Z,4.10
2022-12-01T13:12:09.226Z,4.60
2022-12-01T13:16:17.127Z,4.20
2022-12-01T13:20:22.460Z,4.50
2022-12-01T13:24:26.777Z,3.90
2022-12-01T13:28:31.561Z,4.70
2022-12-01T13:32:42.601Z,4.40
2022-12-01T13:36:49.349Z,4.50
2022-12-01T13:41:12.682Z,4.40
2022-12-01T13:45:17.709Z,3.50
2022-12-01T13:49:49.045Z,4.10
2022-12-01T13:54:38.302Z,4.20
2022-12-01T13:58:48.584Z,4.10
2022-12-01T14:03:10.301Z,5.40
2022-12-01T14:07:14.925Z,4.20
2022-12-01T14:11:28.211Z,4.30
2022-12-01T14:15:33.475Z,4.60
2022-12-01T14:19:51.696Z,4.80
2022-12-01T14:24:05.030Z,4.50
2022-12-01T14:28:16.303Z,4.80
2022-12-01T14:32:20.743Z,4.60
2022-12-01T14:36:51.644Z,4.90
2022-12-01T14:40:53.763Z,5.00
2022-12-01T14:44:56.854Z,5.50
2022-12-01T14:48:58.316Z,4.70
2022-12-01T14:53:23.452Z,4.30
2022-12-01T14:57:35.876Z,4.50
2022-12-01T15:01:38.119Z,4.40
2022-12-01T15:05:41.972Z,4.90
2022-12-01T15:09:59.379Z,4.70
2022-12-01T15:14:00.464Z,4.70
2022-12-01T15:18:01.939Z,4.10
2022-12-01T15:22:06.829Z,4.50
2022-12-01T15:26:11.688Z,4.30
2022-12-01T15:30:14.357Z,3.90
2022-12-01T15:34:23.241Z,4.90
2022-12-01T15:38:36.269Z,5.10
2022-12-01T15:42:38.962Z,3.70
2022-12-01T15:46:40.102Z,4.50
2022-12-01T15:50:46.404Z,3.90
2022-12-01T15:54:49.067Z,3.90
2022-12-01T15:58:51.398Z,3.80
2022-12-01T16:02:55.675Z,4.20
2022-12-01T16:07:06.322Z,3.80
2022-12-01T16:11:16.261Z,4.50
2022-12-01T16:15:21.534Z,3.90
2022-12-01T16:19:26.508Z,3.70
2022-12-01T16:23:28.187Z,3.80
2022-12-01T16:27:31.285Z,4.40
2022-12-01T16:31:32.749Z,3.80
2022-12-01T16:35:33.832Z,4.10
2022-12-01T16:39:35.025Z,4.10
2022-12-01T16:43:36.082Z,4.10
2022-12-01T16:47:37.056Z,3.70
2022-12-01T16:51:54.753Z,3.50
2022-12-01T16:55:45.135Z,3.70
2022-12-01T16:59:46.076Z,3.90
2022-12-01T17:03:47.074Z,4.60
2022-12-01T17:07:48.187Z,4.30
2022-12-01T17:11:49.293Z,4.30
2022-12-01T17:15:52.446Z,4.50
2022-12-01T17:19:53.586Z,4.40
2022-12-01T17:23:55.193Z,4.10
2022-12-01T17:27:56.196Z,4.00
2022-12-01T17:31:57.320Z,4.50
2022-12-01T17:36:08.063Z,5.30
2022-12-01T17:40:13.796Z,4.80
2022-12-01T17:44:16.109Z,5.00
2022-12-01T17:48:17.047Z,5.20
2022-12-01T17:52:18.595Z,4.60
2022-12-01T17:56:19.573Z,4.80
2022-12-01T18:00:21.795Z,4.70
2022-12-01T18:04:22.946Z,4.00
2022-12-01T18:08:26.252Z,4.80
2022-12-01T18:12:27.247Z,4.70
2022-12-01T18:16:31.065Z,4.80
2022-12-01T18:20:32.110Z,4.60
2022-12-01T18:24:33.102Z,5.10
2022-12-01T18:28:34.814Z,5.10
2022-12-01T18:32:36.084Z,4.70
2022-12-01T18:36:40.252Z,4.30
2022-12-01T18:40:41.226Z,6.10
2022-12-01T18:44:43.449Z,4.80
2022-12-01T18:48:50.101Z,3.70
2022-12-01T18:52:51.053Z,4.50
2022-12-01T18:56:52.797Z,4.00
2022-12-01T19:00:53.853Z,5.20
2022-12-01T19:04:55.081Z,5.20
2022-12-01T19:08:59.365Z,6.30
2022-12-01T19:13:00.579Z,5.20
2022-12-01T19:17:01.760Z,5.00
2022-12-01T19:21:08.050Z,4.60
2022-12-01T19:25:11.035Z,4.50
2022-12-01T19:29:12.592Z,4.90
2022-12-01T19:33:14.199Z,5.70
2022-12-01T19:37:15.232Z,6.10
2022-12-01T19:41:19.503Z,5.40
2022-12-01T19:45:20.639Z,5.90
2022-12-01T19:49:22.060Z,6.90
2022-12-01T19:53:23.175Z,7.30
2022-12-01T19:57:24.375Z,7.30
2022-12-01T20:01:26.415Z,5.50
2022-12-01T20:05:27.562Z,6.70
2022-12-01T20:09:28.750Z,4.70
2022-12-01T20:13:35.184Z,5.50
2022-12-01T20:17:36.726Z,4.50
2022-12-01T20:21:41.199Z,6.20
2022-12-01T20:25:43.214Z,5.20
2022-12-01T20:29:44.545Z,5.60
2022-12-01T20:33:45.820Z,5.90
2022-12-01T20:37:47.123Z,6.40
2022-12-01T20:41:49.039Z,6.20
2022-12-01T20:45:50.060Z,6.60
2022-12-01T20:49:54.223Z,5.50
2022-12-01T20:54:19.655Z,5.20
2022-12-01T20:57:56.948Z,6.40
2022-12-01T21:01:58.444Z,5.00
2022-12-01T21:05:59.988Z,5.50
2022-12-01T21:10:02.506Z,4.70
2022-12-01T21:14:04.328Z,4.60
2022-12-01T21:18:09.421Z,4.30
2022-12-01T21:22:12.886Z,5.30
2022-12-01T21:26:15.845Z,4.80
2022-12-01T21:30:25.735Z,5.80
2022-12-01T21:34:28.788Z,5.30
2022-12-01T21:38:31.321Z,3.80
2022-12-01T21:42:32.514Z,6.10
2022-12-01T21:46:34.812Z,6.50
2022-12-01T21:50:36.254Z,4.00
2022-12-01T21:54:37.499Z,4.50
2022-12-01T21:58:38.573Z,4.60
2022-12-01T22:02:52.025Z,5.00
2022-12-01T22:06:54.771Z,5.70
2022-12-01T22:11:06.115Z,5.50
2022-12-01T22:15:11.069Z,6.00
2022-12-01T22:19:21.967Z,5.30
2022-12-01T22:23:27.021Z,6.20
2022-12-01T22:27:34.275Z,5.20
2022-12-01T22:31:35.405Z,6.00
2022-12-01T22:35:48.631Z,5.10
2022-12-01T22:39:53.826Z,5.40
2022-12-01T22:43:56.709Z,6.30
2022-12-01T22:48:01.187Z,4.60
2022-12-01T22:52:08.948Z,5.50
2022-12-01T22:56:30.439Z,6.30
2022-12-01T23:00:33.334Z,6.90
2022-12-01T23:04:40.578Z,6.50
2022-12-01T23:08:41.745Z,7.00
2022-12-01T23:12:44.770Z,4.40
2022-12-01T23:16:46.286Z,3.90
2022-12-01T23:20:50.878Z,5.30
2022-12-01T23:24:52.325Z,6.60
2022-12-01T23:28:56.684Z,3.90
2022-12-01T23:33:07.802Z,3.90
2022-12-01T23:37:15.710Z,3.80
2022-12-01T23:41:25.261Z,4.60
2022-12-01T23:45:25.229Z,5.30
2022-12-01T23:49:32.567Z,5.20
2022-12-01T23:53:33.885Z,5.00
2022-12-01T23:57:36.206Z,4.50
